createdAt,value
2023-02-11T00:00:00.446Z,12.43
2023-02-11T00:03:01.907Z,13.20
2023-02-11T00:06:03.286Z,13.77
2023-02-11T00:09:04.607Z,14.32
2023-02-11T00:12:05.912Z,11.98
2023-02-11T00:15:07.277Z,14.40
2023-02-11T00:18:08.560Z,12.57
2023-02-11T00:21:09.850Z,13.32
2023-02-11T00:24:11.142Z,13.15
2023-02-11T00:27:12.443Z,12.25
2023-02-11T00:30:13.710Z,12.07
2023-02-11T00:33:15.003Z,12.20
2023-02-11T00:36:16.283Z,13.02
2023-02-11T00:39:17.569Z,13.23
2023-02-11T00:42:18.843Z,12.25
2023-02-11T00:45:20.152Z,13.20
2023-02-11T00:48:21.437Z,13.52
2023-02-11T00:51:22.725Z,13.43
2023-02-11T00:54:24.015Z,13.23
2023-02-11T00:57:25.299Z,13.35
2023-02-11T01:00:26.734Z,14.50
2023-02-11T01:03:28.017Z,12.75
2023-02-11T01:06:29.329Z,12.05
2023-02-11T01:09:30.616Z,13.68
2023-02-11T01:12:33.984Z,12.60
2023-02-11T01:15:36.565Z,12.97
2023-02-11T01:18:38.097Z,13.45
2023-02-11T01:21:39.374Z,13.07
2023-02-11T01:24:40.677Z,12.98
2023-02-11T01:27:41.949Z,13.00
2023-02-11T01:30:43.276Z,12.23
2023-02-11T01:33:44.589Z,13.35
2023-02-11T01:36:46.015Z,13.40
2023-02-11T01:39:47.308Z,12.48
2023-02-11T01:42:50.948Z,11.75
2023-02-11T01:45:52.793Z,14.27
2023-02-11T01:48:54.343Z,13.85
2023-02-11T01:51:55.639Z,13.43
2023-02-11T01:54:56.927Z,12.93
2023-02-11T01:57:58.256Z,12.98
2023-02-11T02:00:59.534Z,12.77
2023-02-11T02:04:00.892Z,11.57
2023-02-11T02:07:02.206Z,14.05
2023-02-11T02:10:03.490Z,12.02
2023-02-11T02:13:04.765Z,13.35
2023-02-11T02:16:09.237Z,12.67
2023-02-11T02:19:11.026Z,13.05
2023-02-11T02:22:12.319Z,14.73
2023-02-11T02:25:13.601Z,13.45
2023-02-11T02:28:15.044Z,13.52
2023-02-11T02:31:16.420Z,14.63
2023-02-11T02:34:17.724Z,13.13
2023-02-11T02:37:18.994Z,14.32
2023-02-11T02:40:20.280Z,13.80
2023-02-11T02:43:21.587Z,12.50
2023-02-11T02:46:22.863Z,13.30
2023-02-11T02:49:24.197Z,15.18
2023-02-11T02:52:25.537Z,13.40
2023-02-11T02:55:26.821Z,13.38
2023-02-11T02:58:28.171Z,13.82
2023-02-11T03:01:29.463Z,14.87
2023-02-11T03:04:30.955Z,13.93
2023-02-11T03:07:32.262Z,13.48
2023-02-11T03:10:33.562Z,14.23
2023-02-11T03:13:34.873Z,13.45
2023-02-11T03:16:36.205Z,14.50
2023-02-11T03:19:37.518Z,14.07
2023-02-11T03:22:38.825Z,14.88
2023-02-11T03:25:40.115Z,14.52
2023-02-11T03:28:41.427Z,14.15
2023-02-11T03:31:42.922Z,14.20
2023-02-11T03:34:44.273Z,13.57
2023-02-11T03:37:45.541Z,14.60
2023-02-11T03:40:46.831Z,14.77
2023-02-11T03:43:48.127Z,14.23
2023-02-11T03:46:49.409Z,14.20
2023-02-11T03:49:50.726Z,12.73
2023-02-11T03:52:52.012Z,15.38
2023-02-11T03:55:53.295Z,13.65
2023-02-11T03:58:54.592Z,14.07
2023-02-11T04:01:55.863Z,14.27
2023-02-11T04:04:57.142Z,13.93
2023-02-11T04:07:58.438Z,14.63
2023-02-11T04:10:59.716Z,16.02
2023-02-11T04:14:01.001Z,13.63
2023-02-11T04:17:02.284Z,13.77
2023-02-11T04:20:03.563Z,15.82
2023-02-11T04:23:04.869Z,14.18
2023-02-11T04:26:06.165Z,14.45
2023-02-11T04:29:07.463Z,13.20
2023-02-11T04:32:08.818Z,13.57
2023-02-11T04:35:10.146Z,12.57
2023-02-11T04:38:11.457Z,14.25
2023-02-11T04:41:12.743Z,14.73
2023-02-11T04:44:14.045Z,14.32
2023-02-11T04:47:15.340Z,15.17
2023-02-11T04:50:16.659Z,15.35
2023-02-11T04:53:18.003Z,14.93
2023-02-11T04:56:19.297Z,16.42
2023-02-11T04:59:20.592Z,16.48
2023-02-11T05:02:21.879Z,17.87
2023-02-11T05:05:23.166Z,15.07
2023-02-11T05:08:24.500Z,18.33
2023-02-11T05:11:25.912Z,18.17
2023-02-11T05:14:27.222Z,19.70
2023-02-11T05:17:28.523Z,17.47
2023-02-11T05:20:29.822Z,18.60
2023-02-11T05:23:31.105Z,19.98
2023-02-11T05:26:32.394Z,21.90
2023-02-11T05:29:33.678Z,23.38
2023-02-11T05:32:34.978Z,21.13
2023-02-11T05:35:36.263Z,19.98
2023-02-11T05:38:37.570Z,19.95
2023-02-11T05:41:38.869Z,19.40
2023-02-11T05:44:40.178Z,21.05
2023-02-11T05:47:41.481Z,20.63
2023-02-11T05:50:42.771Z,20.70
2023-02-11T05:53:44.051Z,21.35
2023-02-11T05:56:45.344Z,22.48
2023-02-11T05:59:46.643Z,23.10
2023-02-11T06:02:47.978Z,22.07
2023-02-11T06:05:49.672Z,23.63
2023-02-11T06:08:51.170Z,23.50
2023-02-11T06:11:52.460Z,23.45
2023-02-11T06:14:53.752Z,23.98
2023-02-11T06:17:55.094Z,23.67
2023-02-11T06:20:56.428Z,22.90
2023-02-11T06:23:57.750Z,25.88
2023-02-11T06:26:59.058Z,26.42
2023-02-11T06:30:00.337Z,26.10
2023-02-11T06:33:01.630Z,24.33
2023-02-11T06:36:02.911Z,27.65
2023-02-11T06:39:04.238Z,28.20
2023-02-11T06:42:07.917Z,28.90
2023-02-11T06:45:09.330Z,26.27
2023-02-11T06:48:10.645Z,28.70
2023-02-11T06:51:11.951Z,29.52
2023-02-11T06:54:13.224Z,28.08
2023-02-11T06:57:14.573Z,28.48
2023-02-11T07:00:15.862Z,27.92
2023-02-11T07:03:17.270Z,29.70
2023-02-11T07:06:18.594Z,28.67
2023-02-11T07:09:19.939Z,29.83
2023-02-11T07:12:21.207Z,28.50
2023-02-11T07:15:22.507Z,29.35
2023-02-11T07:18:23.788Z,30.80
2023-02-11T07:21:25.299Z,29.05
2023-02-11T07:24:26.612Z,30.05
2023-02-11T07:27:27.902Z,29.63
2023-02-11T07:30:29.286Z,27.67
2023-02-11T07:33:30.615Z,27.80
2023-02-11T07:36:32.035Z,28.10
2023-02-11T07:39:33.418Z,27.98
2023-02-11T07:42:34.714Z,28.30
2023-02-11T07:45:36.008Z,28.63
2023-02-11T07:48:37.409Z,28.27
2023-02-11T07:51:38.693Z,29.73
2023-02-11T07:54:39.986Z,27.65
2023-02-11T07:57:41.305Z,29.45
2023-02-11T08:00:42.634Z,28.75
2023-02-11T08:03:43.931Z,26.90
2023-02-11T08:06:45.226Z,29.02
2023-02-11T08:09:46.502Z,28.92
2023-02-11T08:12:47.797Z,28.90
2023-02-11T08:15:49.436Z,26.45
2023-02-11T08:18:50.906Z,26.87
2023-02-11T08:21:52.200Z,27.35
2023-02-11T08:24:53.512Z,28.25
2023-02-11T08:27:54.828Z,27.38
2023-02-11T08:30:56.242Z,27.25
2023-02-11T08:33:57.558Z,27.30
2023-02-11T08:36:58.853Z,26.27
2023-02-11T08:40:00.143Z,26.98
2023-02-11T08:43:01.438Z,27.63
2023-02-11T08:46:02.771Z,27.08
2023-02-11T08:49:04.162Z,27.20
2023-02-11T08:52:05.671Z,27.60
2023-02-11T08:55:06.972Z,27.15
2023-02-11T08:58:08.294Z,27.25
2023-02-11T09:01:09.598Z,26.85
2023-02-11T09:04:10.918Z,27.23
2023-02-11T09:07:12.204Z,26.55
2023-02-11T09:10:13.514Z,25.20
2023-02-11T09:13:14.800Z,26.92
2023-02-11T09:16:16.175Z,27.63
2023-02-11T09:19:17.472Z,25.00
2023-02-11T09:22:18.764Z,25.05
2023-02-11T09:25:20.058Z,24.48
2023-02-11T09:28:21.478Z,24.45
2023-02-11T09:31:22.867Z,27.75
2023-02-11T09:34:24.233Z,24.77
2023-02-11T09:37:25.579Z,23.85
2023-02-11T09:40:26.869Z,23.60
2023-02-11T09:43:28.150Z,23.83
2023-02-11T09:46:29.522Z,22.90
2023-02-11T09:49:30.860Z,22.87
2023-02-11T09:52:32.148Z,24.70
2023-02-11T09:55:33.453Z,23.20
2023-02-11T09:58:34.783Z,22.75
2023-02-11T10:01:36.197Z,24.17
2023-02-11T10:04:37.587Z,24.03
2023-02-11T10:07:38.887Z,23.50
2023-02-11T10:10:40.186Z,22.27
2023-02-11T10:13:42.629Z,22.15
2023-02-11T10:16:44.043Z,22.63
2023-02-11T10:19:45.344Z,21.97
2023-02-11T10:22:46.640Z,22.05
2023-02-11T10:25:47.939Z,22.70
2023-02-11T10:28:49.239Z,21.65
2023-02-11T10:31:50.614Z,21.95
2023-02-11T10:34:51.976Z,21.53
2023-02-11T10:37:53.270Z,21.70
2023-02-11T10:40:54.570Z,22.63
2023-02-11T10:43:57.285Z,22.17
2023-02-11T10:46:58.573Z,21.92
2023-02-11T10:49:59.864Z,23.47
2023-02-11T10:53:01.216Z,21.80
2023-02-11T10:56:02.506Z,21.65
2023-02-11T10:59:03.821Z,21.27
2023-02-11T11:02:05.149Z,20.10
2023-02-11T11:05:06.605Z,22.03
2023-02-11T11:08:07.984Z,21.70
2023-02-11T11:11:09.280Z,22.77
2023-02-11T11:14:10.673Z,20.92
2023-02-11T11:17:12.130Z,21.80
2023-02-11T11:20:13.402Z,20.97
2023-02-11T11:23:14.700Z,19.38
2023-02-11T11:26:15.980Z,21.13
2023-02-11T11:29:17.286Z,22.52
2023-02-11T11:32:20.551Z,19.63
2023-02-11T11:35:22.099Z,19.90
2023-02-11T11:38:23.579Z,20.58
2023-02-11T11:41:24.902Z,21.13
2023-02-11T11:44:26.211Z,20.13
2023-02-11T11:47:27.486Z,21.55
2023-02-11T11:50:28.955Z,20.10
2023-02-11T11:53:30.285Z,19.75
2023-02-11T11:56:31.566Z,20.55
2023-02-11T11:59:32.867Z,20.98
2023-02-11T12:02:34.192Z,20.45
2023-02-11T12:05:35.482Z,20.30
2023-02-11T12:08:36.790Z,21.35
2023-02-11T12:11:38.067Z,21.10
2023-02-11T12:14:39.773Z,19.98
2023-02-11T12:17:41.100Z,20.70
2023-02-11T12:20:42.537Z,19.83
2023-02-11T12:23:43.855Z,21.00
2023-02-11T12:26:45.183Z,19.42
2023-02-11T12:29:46.462Z,19.95
2023-02-11T12:32:47.787Z,20.17
2023-02-11T12:35:49.408Z,18.93
2023-02-11T12:38:50.788Z,20.00
2023-02-11T12:41:52.127Z,19.38
2023-02-11T12:44:53.407Z,18.60
2023-02-11T12:47:54.704Z,19.05
2023-02-11T12:50:55.994Z,20.53
2023-02-11T12:53:57.301Z,18.42
2023-02-11T12:56:58.913Z,19.95
2023-02-11T13:00:00.537Z,20.90
2023-02-11T13:03:01.923Z,18.35
2023-02-11T13:06:03.224Z,18.83
2023-02-11T13:09:04.998Z,21.02
2023-02-11T13:12:06.356Z,20.40
2023-02-11T13:15:07.678Z,18.95
2023-02-11T13:18:09.301Z,18.27
2023-02-11T13:21:10.688Z,17.43
2023-02-11T13:24:12.120Z,19.40
2023-02-11T13:27:13.509Z,19.77
2023-02-11T13:30:15.104Z,18.17
2023-02-11T13:33:16.464Z,19.33
2023-02-11T13:36:17.762Z,19.00
2023-02-11T13:39:19.526Z,17.85
2023-02-11T13:42:20.914Z,19.95
2023-02-11T13:45:22.204Z,19.85
2023-02-11T13:48:23.497Z,18.85
2023-02-11T13:51:27.153Z,18.30
2023-02-11T13:54:28.524Z,18.58
2023-02-11T13:57:29.854Z,18.58
2023-02-11T14:00:31.292Z,19.02
2023-02-11T14:03:33.025Z,18.92
2023-02-11T14:06:34.635Z,17.30
2023-02-11T14:09:36.006Z,17.25
2023-02-11T14:12:37.574Z,17.58
2023-02-11T14:15:39.365Z,18.75
2023-02-11T14:18:40.886Z,18.05
2023-02-11T14:21:42.568Z,17.90
2023-02-11T14:24:44.755Z,17.70
2023-02-11T14:27:46.109Z,17.83
2023-02-11T14:30:47.919Z,16.50
2023-02-11T14:33:49.320Z,18.05
2023-02-11T14:36:50.759Z,16.53
2023-02-11T14:39:52.479Z,16.70
2023-02-11T14:42:53.852Z,18.65
2023-02-11T14:45:55.506Z,17.63
2023-02-11T14:48:57.811Z,15.80
2023-02-11T14:51:59.778Z,16.87
2023-02-11T14:55:01.392Z,18.67
2023-02-11T14:58:03.157Z,16.85
2023-02-11T15:01:04.649Z,17.30
2023-02-11T15:04:06.149Z,15.65
2023-02-11T15:07:07.854Z,17.07
2023-02-11T15:10:09.357Z,16.55
2023-02-11T15:13:10.752Z,17.98
2023-02-11T15:16:12.438Z,17.63
2023-02-11T15:19:14.127Z,17.75
2023-02-11T15:22:15.909Z,18.67
2023-02-11T15:25:18.264Z,17.45
2023-02-11T15:28:19.671Z,19.33
2023-02-11T15:31:21.207Z,17.85
2023-02-11T15:34:23.527Z,17.85
2023-02-11T15:37:28.272Z,18.97
2023-02-11T15:40:29.969Z,17.67
2023-02-11T15:43:31.348Z,16.92
2023-02-11T15:46:33.061Z,16.92
2023-02-11T15:49:34.824Z,18.55
2023-02-11T15:52:36.570Z,16.57
2023-02-11T15:55:39.351Z,17.38
2023-02-11T15:58:41.081Z,18.77
2023-02-11T16:01:42.900Z,17.35
2023-02-11T16:04:45.658Z,17.17
2023-02-11T16:07:47.470Z,18.67
2023-02-11T16:10:50.367Z,17.42
2023-02-11T16:13:52.299Z,18.58
2023-02-11T16:16:54.091Z,17.70
2023-02-11T16:19:55.793Z,16.90
2023-02-11T16:22:57.543Z,17.30
2023-02-11T16:25:59.560Z,17.73
2023-02-11T16:29:01.300Z,18.50
2023-02-11T16:32:03.092Z,18.23
2023-02-11T16:35:04.959Z,20.40
2023-02-11T16:38:06.692Z,19.20
2023-02-11T16:41:08.541Z,19.08
2023-02-11T16:44:11.521Z,18.67
2023-02-11T16:47:13.440Z,20.27
2023-02-11T16:50:15.199Z,19.38
2023-02-11T16:53:16.967Z,19.97
2023-02-11T16:56:18.600Z,20.33
2023-02-11T16:59:20.687Z,19.60
2023-02-11T17:02:23.985Z,21.58
2023-02-11T17:05:25.933Z,20.75
2023-02-11T17:08:27.717Z,20.07
2023-02-11T17:11:29.385Z,20.90
2023-02-11T17:14:31.198Z,20.48
2023-02-11T17:17:32.975Z,19.38
2023-02-11T17:20:34.362Z,19.40
2023-02-11T17:23:36.101Z,18.97
2023-02-11T17:26:38.035Z,19.27
2023-02-11T17:29:39.874Z,19.30
2023-02-11T17:32:42.731Z,20.02
2023-02-11T17:35:44.278Z,20.55
2023-02-11T17:38:45.614Z,18.67
2023-02-11T17:41:47.352Z,18.45
2023-02-11T17:44:49.147Z,21.08
2023-02-11T17:47:50.889Z,19.65
2023-02-11T17:50:52.690Z,20.08
2023-02-11T17:53:54.448Z,17.80
2023-02-11T17:56:58.190Z,19.83
2023-02-11T18:00:00.338Z,18.83
2023-02-11T18:03:02.104Z,18.95
2023-02-11T18:06:03.921Z,19.45
2023-02-11T18:09:05.744Z,18.47
2023-02-11T18:12:08.063Z,19.48
2023-02-11T18:15:09.746Z,19.83
2023-02-11T18:18:11.609Z,18.77
2023-02-11T18:21:13.433Z,19.60
2023-02-11T18:24:15.278Z,19.57
2023-02-11T18:27:16.654Z,19.83
2023-02-11T18:30:29.803Z,22.23
2023-02-11T18:33:31.746Z,20.73
2023-02-11T18:36:33.525Z,22.15
2023-02-11T18:39:35.289Z,20.47
2023-02-11T18:42:37.149Z,20.45
2023-02-11T18:45:41.762Z,21.50
2023-02-11T18:48:43.735Z,20.77
2023-02-11T18:51:45.565Z,20.95
2023-02-11T18:54:46.970Z,22.37
2023-02-11T18:57:48.266Z,21.67
2023-02-11T19:00:50.092Z,21.20
2023-02-11T19:03:51.965Z,20.80
2023-02-11T19:06:53.753Z,20.08
2023-02-11T19:09:55.695Z,19.00
2023-02-11T19:12:57.494Z,21.52
2023-02-11T19:15:58.893Z,22.10
2023-02-11T19:19:00.547Z,21.17
2023-02-11T19:22:02.412Z,21.83
2023-02-11T19:25:05.287Z,22.07
2023-02-11T19:28:07.137Z,22.42
2023-02-11T19:31:09.328Z,21.13
2023-02-11T19:34:10.789Z,20.80
2023-02-11T19:37:12.668Z,22.52
2023-02-11T19:40:14.631Z,22.27
2023-02-11T19:43:16.578Z,21.35
2023-02-11T19:46:18.833Z,23.40
2023-02-11T19:49:20.780Z,23.80
2023-02-11T19:52:22.645Z,24.58
2023-02-11T19:55:24.016Z,22.53
2023-02-11T19:58:25.770Z,22.40
2023-02-11T20:01:27.224Z,23.88
2023-02-11T20:04:28.559Z,24.85
2023-02-11T20:07:30.260Z,23.23
2023-02-11T20:10:32.150Z,22.87
2023-02-11T20:13:33.532Z,22.13
2023-02-11T20:16:47.569Z,22.50
2023-02-11T20:19:50.312Z,21.73
2023-02-11T20:22:52.063Z,22.08
2023-02-11T20:25:54.263Z,22.83
2023-02-11T20:28:56.832Z,22.63
2023-02-11T20:31:59.828Z,21.75
2023-02-11T20:35:01.919Z,21.52
2023-02-11T20:38:03.716Z,22.83
2023-02-11T20:41:05.497Z,22.90
2023-02-11T20:44:07.414Z,24.10
2023-02-11T20:47:08.953Z,20.85
2023-02-11T20:50:10.628Z,22.88
2023-02-11T20:53:12.487Z,21.80
2023-02-11T20:56:14.775Z,23.17
2023-02-11T20:59:16.618Z,21.90
2023-02-11T21:02:18.581Z,23.85
2023-02-11T21:05:20.411Z,21.17
2023-02-11T21:08:22.231Z,21.33
2023-02-11T21:11:24.125Z,21.73
2023-02-11T21:14:25.973Z,19.65
2023-02-11T21:17:28.739Z,20.98
2023-02-11T21:20:30.106Z,20.73
2023-02-11T21:23:31.801Z,23.10
2023-02-11T21:26:33.525Z,20.73
2023-02-11T21:29:43.033Z,20.38
2023-02-11T21:32:51.126Z,20.90
2023-02-11T21:35:53.305Z,21.70
2023-02-11T21:38:55.045Z,20.02
2023-02-11T21:41:56.706Z,23.23
2023-02-11T21:45:01.099Z,21.33
2023-02-11T21:48:03.343Z,21.40
2023-02-11T21:51:04.717Z,21.75
2023-02-11T21:54:06.232Z,22.70
2023-02-11T21:57:07.798Z,22.03
2023-02-11T22:00:09.114Z,22.27
2023-02-11T22:03:10.406Z,23.70
2023-02-11T22:06:11.721Z,24.25
2023-02-11T22:09:13.022Z,21.88
2023-02-11T22:12:14.374Z,24.73
2023-02-11T22:15:18.344Z,24.50
2023-02-11T22:18:19.693Z,22.70
2023-02-11T22:21:20.964Z,24.48
2023-02-11T22:24:22.483Z,24.75
2023-02-11T22:27:23.784Z,22.27
2023-02-11T22:30:25.083Z,23.35
2023-02-11T22:33:26.565Z,22.75
2023-02-11T22:36:27.886Z,24.25
2023-02-11T22:39:29.196Z,23.88
2023-02-11T22:42:30.481Z,24.33
2023-02-11T22:45:31.870Z,23.35
2023-02-11T22:48:33.186Z,23.27
2023-02-11T22:51:34.469Z,21.85
2023-02-11T22:54:35.768Z,21.80
2023-02-11T22:57:37.075Z,24.03
2023-02-11T23:00:38.388Z,23.13
2023-02-11T23:03:39.669Z,22.63
2023-02-11T23:06:40.977Z,22.92
2023-02-11T23:09:42.275Z,22.25
2023-02-11T23:12:43.651Z,23.93
2023-02-11T23:15:44.940Z,23.98
2023-02-11T23:18:46.252Z,23.35
2023-02-11T23:21:47.534Z,24.20
2023-02-11T23:24:48.853Z,24.50
2023-02-11T23:27:50.341Z,24.43
2023-02-11T23:30:51.652Z,23.98
2023-02-11T23:33:52.953Z,25.42
2023-02-11T23:36:54.258Z,23.30
2023-02-11T23:39:55.612Z,25.92
2023-02-11T23:42:57.062Z,25.50
2023-02-11T23:45:58.427Z,24.55
2023-02-11T23:48:59.825Z,25.52
2023-02-11T23:52:01.087Z,27.05
2023-02-11T23:55:02.365Z,26.70
2023-02-11T23:58:03.646Z,26.50
